sensor_id;sensor_type;location;lat;lon;timestamp;P1;durP1;ratioP1;P2;durP2;ratioP2
25359;SDS011;13311;51.386;0.016;2024-02-21T00:03:25;16.58;;;3.20;;
25359;SDS011;13311;51.386;0.016;2024-02-21T00:08:25;16.88;;;3.97;;
25359;SDS011;13311;51.386;0.016;2024-02-21T00:13:26;15.48;;;3.78;;
25359;SDS011;13311;51.386;0.016;2024-02-21T00:18:27;13.23;;;3.53;;
25359;SDS011;13311;51.386;0.016;2024-02-21T00:23:28;14.43;;;2.92;;
25359;SDS011;13311;51.386;0.016;2024-02-21T00:28:28;25.50;;;3.35;;
25359;SDS011;13311;51.386;0.016;2024-02-21T00:33:29;10.98;;;3.70;;
25359;SDS011;13311;51.386;0.016;2024-02-21T00:38:30;12.75;;;2.85;;
25359;SDS011;13311;51.386;0.016;2024-02-21T00:43:30;21.20;;;3.65;;
25359;SDS011;13311;51.386;0.016;2024-02-21T00:48:31;15.60;;;2.97;;
25359;SDS011;13311;51.386;0.016;2024-02-21T00:53:32;18.90;;;3.67;;
25359;SDS011;13311;51.386;0.016;2024-02-21T00:58:33;13.70;;;4.50;;
25359;SDS011;13311;51.386;0.016;2024-02-21T01:03:34;17.50;;;3.75;;
25359;SDS011;13311;51.386;0.016;2024-02-21T01:08:34;15.98;;;3.90;;
25359;SDS011;13311;51.386;0.016;2024-02-21T01:13:35;15.05;;;4.25;;
25359;SDS011;13311;51.386;0.016;2024-02-21T01:18:39;21.75;;;4.00;;
25359;SDS011;13311;51.386;0.016;2024-02-21T01:23:40;16.48;;;3.22;;
25359;SDS011;13311;51.386;0.016;2024-02-21T01:28:41;17.83;;;3.40;;
25359;SDS011;13311;51.386;0.016;2024-02-21T01:33:42;12.85;;;2.85;;
25359;SDS011;13311;51.386;0.016;2024-02-21T01:38:43;13.63;;;3.47;;
25359;SDS011;13311;51.386;0.016;2024-02-21T01:43:43;18.00;;;3.58;;
25359;SDS011;13311;51.386;0.016;2024-02-21T01:48:45;16.75;;;3.35;;
25359;SDS011;13311;51.386;0.016;2024-02-21T01:53:46;21.95;;;4.13;;
25359;SDS011;13311;51.386;0.016;2024-02-21T01:58:47;13.65;;;3.28;;
25359;SDS011;13311;51.386;0.016;2024-02-21T02:03:49;13.73;;;3.55;;
25359;SDS011;13311;51.386;0.016;2024-02-21T02:08:50;22.45;;;4.32;;
25359;SDS011;13311;51.386;0.016;2024-02-21T02:13:51;19.35;;;5.10;;
25359;SDS011;13311;51.386;0.016;2024-02-21T02:18:51;15.82;;;3.63;;
25359;SDS011;13311;51.386;0.016;2024-02-21T02:23:52;20.50;;;4.40;;
25359;SDS011;13311;51.386;0.016;2024-02-21T02:28:53;17.45;;;4.30;;
25359;SDS011;13311;51.386;0.016;2024-02-21T02:33:55;14.32;;;3.60;;
25359;SDS011;13311;51.386;0.016;2024-02-21T02:38:55;18.50;;;3.80;;
25359;SDS011;13311;51.386;0.016;2024-02-21T02:43:56;27.70;;;5.00;;
25359;SDS011;13311;51.386;0.016;2024-02-21T02:48:57;18.30;;;3.92;;
25359;SDS011;13311;51.386;0.016;2024-02-21T02:53:57;17.85;;;4.32;;
25359;SDS011;13311;51.386;0.016;2024-02-21T02:58:58;16.60;;;3.80;;
25359;SDS011;13311;51.386;0.016;2024-02-21T03:03:59;18.73;;;3.97;;
25359;SDS011;13311;51.386;0.016;2024-02-21T03:08:59;15.63;;;4.10;;
25359;SDS011;13311;51.386;0.016;2024-02-21T03:14:00;15.27;;;3.45;;
25359;SDS011;13311;51.386;0.016;2024-02-21T03:19:01;13.45;;;3.95;;
25359;SDS011;13311;51.386;0.016;2024-02-21T03:24:02;12.93;;;3.33;;
25359;SDS011;13311;51.386;0.016;2024-02-21T03:29:05;9.88;;;3.65;;
25359;SDS011;13311;51.386;0.016;2024-02-21T03:34:06;15.52;;;3.70;;
25359;SDS011;13311;51.386;0.016;2024-02-21T03:39:07;11.25;;;3.47;;
25359;SDS011;13311;51.386;0.016;2024-02-21T03:44:09;20.00;;;3.60;;
25359;SDS011;13311;51.386;0.016;2024-02-21T03:49:09;10.93;;;3.10;;
25359;SDS011;13311;51.386;0.016;2024-02-21T03:54:10;13.15;;;3.22;;
25359;SDS011;13311;51.386;0.016;2024-02-21T03:59:11;14.57;;;3.70;;
25359;SDS011;13311;51.386;0.016;2024-02-21T04:04:12;12.48;;;2.85;;
25359;SDS011;13311;51.386;0.016;2024-02-21T04:09:12;11.18;;;3.15;;
25359;SDS011;13311;51.386;0.016;2024-02-21T04:14:13;18.50;;;4.22;;
25359;SDS011;13311;51.386;0.016;2024-02-21T04:19:14;9.93;;;3.05;;
25359;SDS011;13311;51.386;0.016;2024-02-21T04:24:15;12.18;;;3.20;;
25359;SDS011;13311;51.386;0.016;2024-02-21T04:29:15;37.60;;;3.33;;
25359;SDS011;13311;51.386;0.016;2024-02-21T04:34:16;7.70;;;2.15;;
25359;SDS011;13311;51.386;0.016;2024-02-21T04:39:17;9.77;;;2.63;;
25359;SDS011;13311;51.386;0.016;2024-02-21T04:44:17;9.43;;;2.67;;
25359;SDS011;13311;51.386;0.016;2024-02-21T04:49:21;11.55;;;3.72;;
25359;SDS011;13311;51.386;0.016;2024-02-21T04:54:22;10.10;;;2.72;;
25359;SDS011;13311;51.386;0.016;2024-02-21T04:59:23;12.80;;;2.97;;
25359;SDS011;13311;51.386;0.016;2024-02-21T05:04:24;9.07;;;2.28;;
25359;SDS011;13311;51.386;0.016;2024-02-21T05:09:24;14.35;;;2.88;;
25359;SDS011;13311;51.386;0.016;2024-02-21T05:14:25;13.07;;;3.10;;
25359;SDS011;13311;51.386;0.016;2024-02-21T05:19:29;8.82;;;2.45;;
25359;SDS011;13311;51.386;0.016;2024-02-21T05:24:30;9.85;;;1.90;;
25359;SDS011;13311;51.386;0.016;2024-02-21T05:29:30;11.45;;;3.20;;
25359;SDS011;13311;51.386;0.016;2024-02-21T05:34:31;10.23;;;3.20;;
25359;SDS011;13311;51.386;0.016;2024-02-21T05:39:32;10.43;;;2.60;;
25359;SDS011;13311;51.386;0.016;2024-02-21T05:44:32;11.55;;;2.72;;
25359;SDS011;13311;51.386;0.016;2024-02-21T05:49:33;11.43;;;2.67;;
25359;SDS011;13311;51.386;0.016;2024-02-21T05:54:34;9.02;;;3.03;;
25359;SDS011;13311;51.386;0.016;2024-02-21T05:59:39;7.78;;;2.90;;
25359;SDS011;13311;51.386;0.016;2024-02-21T06:04:41;8.82;;;2.72;;
25359;SDS011;13311;51.386;0.016;2024-02-21T06:09:46;9.38;;;2.40;;
25359;SDS011;13311;51.386;0.016;2024-02-21T06:14:47;6.07;;;2.10;;
25359;SDS011;13311;51.386;0.016;2024-02-21T06:19:47;6.93;;;1.75;;
25359;SDS011;13311;51.386;0.016;2024-02-21T06:24:48;7.53;;;1.90;;
25359;SDS011;13311;51.386;0.016;2024-02-21T06:29:49;4.43;;;1.70;;
25359;SDS011;13311;51.386;0.016;2024-02-21T06:34:50;5.88;;;1.67;;
25359;SDS011;13311;51.386;0.016;2024-02-21T06:39:51;7.30;;;1.65;;
25359;SDS011;13311;51.386;0.016;2024-02-21T06:44:51;5.70;;;1.75;;
25359;SDS011;13311;51.386;0.016;2024-02-21T06:49:52;4.50;;;1.50;;
25359;SDS011;13311;51.386;0.016;2024-02-21T06:54:53;6.43;;;1.80;;
25359;SDS011;13311;51.386;0.016;2024-02-21T06:59:54;3.08;;;1.05;;
25359;SDS011;13311;51.386;0.016;2024-02-21T07:04:54;8.13;;;1.75;;
25359;SDS011;13311;51.386;0.016;2024-02-21T07:09:55;3.38;;;0.98;;
25359;SDS011;13311;51.386;0.016;2024-02-21T07:14:56;5.15;;;2.22;;
25359;SDS011;13311;51.386;0.016;2024-02-21T07:19:57;4.00;;;1.25;;
25359;SDS011;13311;51.386;0.016;2024-02-21T07:24:59;5.13;;;1.40;;
25359;SDS011;13311;51.386;0.016;2024-02-21T07:29:59;3.80;;;1.35;;
25359;SDS011;13311;51.386;0.016;2024-02-21T07:35:00;5.60;;;1.23;;
25359;SDS011;13311;51.386;0.016;2024-02-21T07:40:01;3.05;;;1.27;;
25359;SDS011;13311;51.386;0.016;2024-02-21T07:45:02;8.57;;;2.08;;
25359;SDS011;13311;51.386;0.016;2024-02-21T07:50:04;5.25;;;2.05;;
25359;SDS011;13311;51.386;0.016;2024-02-21T07:55:05;5.97;;;1.58;;
25359;SDS011;13311;51.386;0.016;2024-02-21T08:00:07;8.02;;;1.80;;
25359;SDS011;13311;51.386;0.016;2024-02-21T08:05:17;6.18;;;2.13;;
25359;SDS011;13311;51.386;0.016;2024-02-21T08:10:18;8.00;;;2.40;;
25359;SDS011;13311;51.386;0.016;2024-02-21T08:15:19;4.45;;;1.70;;
25359;SDS011;13311;51.386;0.016;2024-02-21T08:20:20;5.63;;;2.10;;
25359;SDS011;13311;51.386;0.016;2024-02-21T08:25:21;13.13;;;2.42;;
25359;SDS011;13311;51.386;0.016;2024-02-21T08:30:22;5.35;;;2.20;;
25359;SDS011;13311;51.386;0.016;2024-02-21T08:35:22;8.77;;;2.47;;
25359;SDS011;13311;51.386;0.016;2024-02-21T08:40:23;16.17;;;3.33;;
25359;SDS011;13311;51.386;0.016;2024-02-21T08:45:24;7.25;;;2.33;;
25359;SDS011;13311;51.386;0.016;2024-02-21T08:50:25;14.77;;;2.50;;
25359;SDS011;13311;51.386;0.016;2024-02-21T08:55:26;11.40;;;2.75;;
25359;SDS011;13311;51.386;0.016;2024-02-21T09:00:26;7.47;;;2.20;;
25359;SDS011;13311;51.386;0.016;2024-02-21T09:05:27;5.70;;;1.80;;
25359;SDS011;13311;51.386;0.016;2024-02-21T09:10:28;3.65;;;1.33;;
25359;SDS011;13311;51.386;0.016;2024-02-21T09:15:28;9.02;;;1.98;;
25359;SDS011;13311;51.386;0.016;2024-02-21T09:20:29;5.90;;;2.17;;
25359;SDS011;13311;51.386;0.016;2024-02-21T09:25:31;8.50;;;1.48;;
25359;SDS011;13311;51.386;0.016;2024-02-21T09:30:32;6.97;;;2.00;;
25359;SDS011;13311;51.386;0.016;2024-02-21T09:35:33;7.85;;;1.90;;
25359;SDS011;13311;51.386;0.016;2024-02-21T09:40:33;9.15;;;1.90;;
25359;SDS011;13311;51.386;0.016;2024-02-21T09:45:38;7.10;;;1.50;;
25359;SDS011;13311;51.386;0.016;2024-02-21T09:50:40;10.07;;;1.80;;
25359;SDS011;13311;51.386;0.016;2024-02-21T09:55:43;5.55;;;1.25;;
25359;SDS011;13311;51.386;0.016;2024-02-21T10:00:47;4.28;;;1.33;;
25359;SDS011;13311;51.386;0.016;2024-02-21T10:05:48;7.03;;;1.60;;
25359;SDS011;13311;51.386;0.016;2024-02-21T10:10:52;4.05;;;1.17;;
25359;SDS011;13311;51.386;0.016;2024-02-21T10:16:02;7.47;;;1.70;;
25359;SDS011;13311;51.386;0.016;2024-02-21T10:26:08;4.18;;;1.20;;
25359;SDS011;13311;51.386;0.016;2024-02-21T10:31:10;4.80;;;1.27;;
25359;SDS011;13311;51.386;0.016;2024-02-21T10:36:20;3.92;;;1.20;;
25359;SDS011;13311;51.386;0.016;2024-02-21T10:41:21;2.38;;;1.00;;
25359;SDS011;13311;51.386;0.016;2024-02-21T10:46:24;3.80;;;0.77;;
25359;SDS011;13311;51.386;0.016;2024-02-21T10:51:25;3.88;;;1.38;;
25359;SDS011;13311;51.386;0.016;2024-02-21T10:56:32;3.55;;;0.90;;
25359;SDS011;13311;51.386;0.016;2024-02-21T11:01:36;2.90;;;0.90;;
25359;SDS011;13311;51.386;0.016;2024-02-21T11:06:38;5.38;;;0.90;;
25359;SDS011;13311;51.386;0.016;2024-02-21T11:11:42;2.85;;;1.00;;
25359;SDS011;13311;51.386;0.016;2024-02-21T11:16:45;4.53;;;0.90;;
25359;SDS011;13311;51.386;0.016;2024-02-21T11:21:46;2.53;;;0.60;;
25359;SDS011;13311;51.386;0.016;2024-02-21T11:26:48;5.43;;;0.85;;
25359;SDS011;13311;51.386;0.016;2024-02-21T11:31:51;3.15;;;0.95;;
25359;SDS011;13311;51.386;0.016;2024-02-21T11:36:52;1.48;;;0.70;;
25359;SDS011;13311;51.386;0.016;2024-02-21T11:42:03;2.40;;;0.55;;
25359;SDS011;13311;51.386;0.016;2024-02-21T11:47:06;2.97;;;0.88;;
25359;SDS011;13311;51.386;0.016;2024-02-21T11:52:07;1.30;;;0.50;;
25359;SDS011;13311;51.386;0.016;2024-02-21T11:57:08;1.55;;;0.60;;
25359;SDS011;13311;51.386;0.016;2024-02-21T12:02:09;3.25;;;0.95;;
25359;SDS011;13311;51.386;0.016;2024-02-21T12:07:12;1.63;;;0.90;;
25359;SDS011;13311;51.386;0.016;2024-02-21T12:12:12;3.05;;;0.90;;
25359;SDS011;13311;51.386;0.016;2024-02-21T12:17:13;1.25;;;0.40;;
25359;SDS011;13311;51.386;0.016;2024-02-21T12:22:18;2.33;;;0.60;;
25359;SDS011;13311;51.386;0.016;2024-02-21T12:27:19;1.98;;;0.47;;
25359;SDS011;13311;51.386;0.016;2024-02-21T12:32:20;2.85;;;0.50;;
25359;SDS011;13311;51.386;0.016;2024-02-21T12:37:22;1.75;;;0.57;;
25359;SDS011;13311;51.386;0.016;2024-02-21T12:42:24;1.38;;;0.80;;
25359;SDS011;13311;51.386;0.016;2024-02-21T12:47:26;1.85;;;0.70;;
25359;SDS011;13311;51.386;0.016;2024-02-21T12:52:26;2.22;;;0.50;;
25359;SDS011;13311;51.386;0.016;2024-02-21T12:57:27;0.65;;;0.40;;
25359;SDS011;13311;51.386;0.016;2024-02-21T13:02:28;1.27;;;0.65;;
25359;SDS011;13311;51.386;0.016;2024-02-21T13:07:29;1.30;;;0.40;;
25359;SDS011;13311;51.386;0.016;2024-02-21T13:12:32;4.95;;;0.90;;
25359;SDS011;13311;51.386;0.016;2024-02-21T13:17:33;2.20;;;0.60;;
25359;SDS011;13311;51.386;0.016;2024-02-21T13:22:34;1.05;;;0.52;;
25359;SDS011;13311;51.386;0.016;2024-02-21T13:27:35;0.57;;;0.45;;
25359;SDS011;13311;51.386;0.016;2024-02-21T13:32:35;3.97;;;2.60;;
25359;SDS011;13311;51.386;0.016;2024-02-21T13:37:37;3.60;;;1.10;;
25359;SDS011;13311;51.386;0.016;2024-02-21T13:42:39;1.35;;;0.50;;
25359;SDS011;13311;51.386;0.016;2024-02-21T13:47:40;0.73;;;0.35;;
25359;SDS011;13311;51.386;0.016;2024-02-21T13:52:41;1.65;;;0.40;;
25359;SDS011;13311;51.386;0.016;2024-02-21T13:57:41;0.88;;;0.63;;
25359;SDS011;13311;51.386;0.016;2024-02-21T14:02:43;4.43;;;0.60;;
25359;SDS011;13311;51.386;0.016;2024-02-21T14:07:44;2.58;;;0.65;;
25359;SDS011;13311;51.386;0.016;2024-02-21T14:12:45;2.15;;;0.60;;
25359;SDS011;13311;51.386;0.016;2024-02-21T14:17:45;1.17;;;0.50;;
25359;SDS011;13311;51.386;0.016;2024-02-21T14:22:47;1.75;;;0.68;;
25359;SDS011;13311;51.386;0.016;2024-02-21T14:27:48;1.33;;;0.60;;
25359;SDS011;13311;51.386;0.016;2024-02-21T14:32:48;1.92;;;0.50;;
25359;SDS011;13311;51.386;0.016;2024-02-21T14:37:49;3.45;;;0.90;;
25359;SDS011;13311;51.386;0.016;2024-02-21T14:42:50;2.38;;;0.70;;
25359;SDS011;13311;51.386;0.016;2024-02-21T14:47:52;1.73;;;0.45;;
25359;SDS011;13311;51.386;0.016;2024-02-21T14:52:53;2.60;;;0.50;;
25359;SDS011;13311;51.386;0.016;2024-02-21T14:57:53;2.20;;;0.60;;
25359;SDS011;13311;51.386;0.016;2024-02-21T15:02:54;1.92;;;0.40;;
25359;SDS011;13311;51.386;0.016;2024-02-21T15:07:58;2.53;;;0.60;;
25359;SDS011;13311;51.386;0.016;2024-02-21T15:12:59;2.42;;;0.40;;
25359;SDS011;13311;51.386;0.016;2024-02-21T15:18:00;3.03;;;0.65;;
25359;SDS011;13311;51.386;0.016;2024-02-21T15:23:00;3.28;;;0.90;;
25359;SDS011;13311;51.386;0.016;2024-02-21T15:28:04;2.13;;;0.40;;
25359;SDS011;13311;51.386;0.016;2024-02-21T15:33:06;2.30;;;0.75;;
25359;SDS011;13311;51.386;0.016;2024-02-21T15:38:06;1.05;;;0.68;;
25359;SDS011;13311;51.386;0.016;2024-02-21T15:43:08;2.88;;;0.75;;
25359;SDS011;13311;51.386;0.016;2024-02-21T15:48:09;1.92;;;0.93;;
25359;SDS011;13311;51.386;0.016;2024-02-21T15:53:10;2.47;;;0.80;;
25359;SDS011;13311;51.386;0.016;2024-02-21T15:58:11;2.08;;;0.70;;
25359;SDS011;13311;51.386;0.016;2024-02-21T16:03:13;1.90;;;0.98;;
25359;SDS011;13311;51.386;0.016;2024-02-21T16:08:14;3.20;;;0.60;;
25359;SDS011;13311;51.386;0.016;2024-02-21T16:13:18;2.60;;;0.90;;
25359;SDS011;13311;51.386;0.016;2024-02-21T16:18:18;4.22;;;0.90;;
25359;SDS011;13311;51.386;0.016;2024-02-21T16:23:20;5.40;;;1.17;;
25359;SDS011;13311;51.386;0.016;2024-02-21T16:28:21;1.48;;;0.65;;
25359;SDS011;13311;51.386;0.016;2024-02-21T16:33:22;1.23;;;0.50;;
25359;SDS011;13311;51.386;0.016;2024-02-21T16:38:22;1.40;;;0.60;;
25359;SDS011;13311;51.386;0.016;2024-02-21T16:43:26;1.38;;;0.50;;
25359;SDS011;13311;51.386;0.016;2024-02-21T16:48:27;1.15;;;0.88;;
25359;SDS011;13311;51.386;0.016;2024-02-21T16:53:29;0.30;;;0.30;;
25359;SDS011;13311;51.386;0.016;2024-02-21T16:58:30;3.60;;;0.57;;
25359;SDS011;13311;51.386;0.016;2024-02-21T17:03:36;1.58;;;0.90;;
25359;SDS011;13311;51.386;0.016;2024-02-21T17:08:38;2.53;;;1.00;;
25359;SDS011;13311;51.386;0.016;2024-02-21T17:13:40;1.42;;;0.57;;
25359;SDS011;13311;51.386;0.016;2024-02-21T17:18:41;1.52;;;0.73;;
25359;SDS011;13311;51.386;0.016;2024-02-21T17:23:42;2.03;;;0.70;;
25359;SDS011;13311;51.386;0.016;2024-02-21T17:28:43;1.38;;;0.90;;
25359;SDS011;13311;51.386;0.016;2024-02-21T17:33:45;2.50;;;0.82;;
25359;SDS011;13311;51.386;0.016;2024-02-21T17:38:45;1.75;;;0.80;;
25359;SDS011;13311;51.386;0.016;2024-02-21T17:43:48;2.30;;;0.70;;
25359;SDS011;13311;51.386;0.016;2024-02-21T17:48:49;1.10;;;1.00;;
25359;SDS011;13311;51.386;0.016;2024-02-21T17:53:49;2.47;;;1.02;;
25359;SDS011;13311;51.386;0.016;2024-02-21T17:58:50;2.20;;;0.70;;
25359;SDS011;13311;51.386;0.016;2024-02-21T18:03:51;1.27;;;0.60;;
25359;SDS011;13311;51.386;0.016;2024-02-21T18:08:52;1.77;;;0.70;;
25359;SDS011;13311;51.386;0.016;2024-02-21T18:13:56;1.73;;;0.60;;
25359;SDS011;13311;51.386;0.016;2024-02-21T18:18:57;3.30;;;0.73;;
25359;SDS011;13311;51.386;0.016;2024-02-21T18:23:58;2.00;;;1.10;;
25359;SDS011;13311;51.386;0.016;2024-02-21T18:28:59;4.63;;;1.30;;
25359;SDS011;13311;51.386;0.016;2024-02-21T18:34:00;1.77;;;1.45;;
25359;SDS011;13311;51.386;0.016;2024-02-21T18:39:03;2.65;;;0.75;;
25359;SDS011;13311;51.386;0.016;2024-02-21T18:44:04;3.58;;;1.23;;
25359;SDS011;13311;51.386;0.016;2024-02-21T18:49:07;3.08;;;0.98;;
25359;SDS011;13311;51.386;0.016;2024-02-21T18:54:08;3.42;;;1.02;;
25359;SDS011;13311;51.386;0.016;2024-02-21T18:59:08;6.05;;;1.55;;
25359;SDS011;13311;51.386;0.016;2024-02-21T19:04:09;3.53;;;1.17;;
25359;SDS011;13311;51.386;0.016;2024-02-21T19:09:10;3.45;;;1.83;;
25359;SDS011;13311;51.386;0.016;2024-02-21T19:14:11;4.75;;;1.80;;
25359;SDS011;13311;51.386;0.016;2024-02-21T19:19:11;8.70;;;2.22;;
25359;SDS011;13311;51.386;0.016;2024-02-21T19:24:12;5.95;;;2.25;;
25359;SDS011;13311;51.386;0.016;2024-02-21T19:29:13;10.38;;;2.70;;
25359;SDS011;13311;51.386;0.016;2024-02-21T19:34:14;10.88;;;3.05;;
25359;SDS011;13311;51.386;0.016;2024-02-21T19:39:14;13.60;;;2.97;;
25359;SDS011;13311;51.386;0.016;2024-02-21T19:44:15;9.73;;;3.10;;
25359;SDS011;13311;51.386;0.016;2024-02-21T19:49:17;12.98;;;2.53;;
25359;SDS011;13311;51.386;0.016;2024-02-21T19:54:18;8.98;;;2.67;;
25359;SDS011;13311;51.386;0.016;2024-02-21T19:59:19;9.63;;;3.42;;
25359;SDS011;13311;51.386;0.016;2024-02-21T20:04:20;15.70;;;3.30;;
25359;SDS011;13311;51.386;0.016;2024-02-21T20:09:21;6.50;;;2.28;;
25359;SDS011;13311;51.386;0.016;2024-02-21T20:14:21;11.52;;;3.03;;
25359;SDS011;13311;51.386;0.016;2024-02-21T20:19:22;10.23;;;2.97;;
25359;SDS011;13311;51.386;0.016;2024-02-21T20:24:23;14.65;;;3.20;;
25359;SDS011;13311;51.386;0.016;2024-02-21T20:29:24;14.35;;;3.00;;
25359;SDS011;13311;51.386;0.016;2024-02-21T20:34:25;11.48;;;3.00;;
25359;SDS011;13311;51.386;0.016;2024-02-21T20:39:33;10.10;;;3.03;;
25359;SDS011;13311;51.386;0.016;2024-02-21T20:44:34;12.52;;;2.65;;
25359;SDS011;13311;51.386;0.016;2024-02-21T20:49:34;12.38;;;3.03;;
25359;SDS011;13311;51.386;0.016;2024-02-21T20:54:35;11.50;;;2.80;;
25359;SDS011;13311;51.386;0.016;2024-02-21T20:59:36;16.77;;;3.33;;
25359;SDS011;13311;51.386;0.016;2024-02-21T21:04:38;9.00;;;2.85;;
25359;SDS011;13311;51.386;0.016;2024-02-21T21:09:39;9.43;;;2.70;;
25359;SDS011;13311;51.386;0.016;2024-02-21T21:14:40;19.92;;;3.65;;
25359;SDS011;13311;51.386;0.016;2024-02-21T21:19:41;12.43;;;2.97;;
25359;SDS011;13311;51.386;0.016;2024-02-21T21:24:41;10.57;;;2.13;;
25359;SDS011;13311;51.386;0.016;2024-02-21T21:29:43;11.55;;;2.88;;
25359;SDS011;13311;51.386;0.016;2024-02-21T21:34:44;8.40;;;2.50;;
25359;SDS011;13311;51.386;0.016;2024-02-21T21:39:45;11.45;;;2.80;;
25359;SDS011;13311;51.386;0.016;2024-02-21T21:44:50;12.77;;;3.40;;
25359;SDS011;13311;51.386;0.016;2024-02-21T21:49:51;7.75;;;2.33;;
25359;SDS011;13311;51.386;0.016;2024-02-21T21:54:51;10.23;;;2.35;;
25359;SDS011;13311;51.386;0.016;2024-02-21T21:59:52;14.50;;;2.70;;
25359;SDS011;13311;51.386;0.016;2024-02-21T22:04:53;13.35;;;2.90;;
25359;SDS011;13311;51.386;0.016;2024-02-21T22:09:54;8.75;;;2.60;;
25359;SDS011;13311;51.386;0.016;2024-02-21T22:14:54;8.77;;;2.35;;
25359;SDS011;13311;51.386;0.016;2024-02-21T22:19:55;13.27;;;3.03;;
25359;SDS011;13311;51.386;0.016;2024-02-21T22:24:56;10.73;;;2.72;;
25359;SDS011;13311;51.386;0.016;2024-02-21T22:29:57;12.88;;;2.88;;
25359;SDS011;13311;51.386;0.016;2024-02-21T22:34:58;7.70;;;2.03;;
25359;SDS011;13311;51.386;0.016;2024-02-21T22:39:59;10.38;;;2.60;;
25359;SDS011;13311;51.386;0.016;2024-02-21T22:45:00;12.98;;;3.03;;
25359;SDS011;13311;51.386;0.016;2024-02-21T22:50:02;14.45;;;2.75;;
25359;SDS011;13311;51.386;0.016;2024-02-21T22:55:04;10.50;;;2.80;;
25359;SDS011;13311;51.386;0.016;2024-02-21T23:00:07;12.18;;;3.03;;
25359;SDS011;13311;51.386;0.016;2024-02-21T23:05:08;8.82;;;2.90;;
25359;SDS011;13311;51.386;0.016;2024-02-21T23:10:09;12.32;;;3.22;;
25359;SDS011;13311;51.386;0.016;2024-02-21T23:15:14;13.57;;;3.40;;
25359;SDS011;13311;51.386;0.016;2024-02-21T23:20:15;16.85;;;3.35;;
25359;SDS011;13311;51.386;0.016;2024-02-21T23:25:16;15.00;;;3.83;;
25359;SDS011;13311;51.386;0.016;2024-02-21T23:30:17;14.98;;;3.63;;
25359;SDS011;13311;51.386;0.016;2024-02-21T23:35:18;14.77;;;3.95;;
25359;SDS011;13311;51.386;0.016;2024-02-21T23:40:19;16.83;;;4.07;;
25359;SDS011;13311;51.386;0.016;2024-02-21T23:45:21;14.27;;;3.85;;
25359;SDS011;13311;51.386;0.016;2024-02-21T23:50:21;14.27;;;4.18;;
25359;SDS011;13311;51.386;0.016;2024-02-21T23:55:23;15.65;;;4.03;;
